Time;durP1;ratioP1;P1;durP2;ratioP2;P2;SDS_P1;SDS_P2;PMS_P1;PMS_P2;Temp;Humidity;BMP_temperature;BMP_pressure;BME280_temperature;BME280_humidity;BME280_pressure;Samples;Min_cycle;Max_cycle;Signal;HPM_P1;HPM_P2
2021/10/19 14:45:48;;;;;;;3.55;2.53;;;;;;;;;;1046364;27;99875;-57
2021/10/19 14:46:19;;;;;;;8.80;3.40;;;;;;;;;;1043697;27;101515;-58
2021/10/19 14:46:50;;;;;;;4.60;3.42;;;;;;;;;;1045322;27;100019;-57
2021/10/19 14:47:21;;;;;;;6.85;2.92;;;;;;;;;;1043662;27;101925;-58
2021/10/19 14:47:52;;;;;;;8.45;3.20;;;;;;;;;;1045303;27;99841;-58
2021/10/19 14:48:23;;;;;;;7.93;2.92;;;;;;;;;;1043392;27;103478;-59
2021/10/19 14:48:54;;;;;;;4.93;3.20;;;;;;;;;;1045025;27;99859;-58
2021/10/19 14:49:25;;;;;;;7.97;3.22;;;;;;;;;;1043412;27;101370;-58
2021/10/19 14:49:57;;;;;;;5.07;2.92;;;;;;;;;;1044730;27;99969;-58
2021/10/19 14:50:28;;;;;;;5.78;2.72;;;;;;;;;;1043811;27;100465;-58
2021/10/19 14:50:59;;;;;;;3.20;2.65;;;;;;;;;;1045297;27;99894;-59
2021/10/19 14:51:30;;;;;;;7.55;3.03;;;;;;;;;;1047829;27;100379;-58
2021/10/19 14:52:00;;;;;;;3.67;2.85;;;;;;;;;;1048404;27;99967;-57
2021/10/19 14:52:31;;;;;;;4.15;2.75;;;;;;;;;;1047861;27;100494;-57
2021/10/19 14:53:02;;;;;;;6.88;2.83;;;;;;;;;;1048750;27;99965;-58
2021/10/19 14:53:33;;;;;;;8.88;3.10;;;;;;;;;;1043978;27;100758;-58
2021/10/19 14:54:04;;;;;;;4.13;3.03;;;;;;;;;;1049052;27;99892;-58
2021/10/19 14:54:35;;;;;;;4.75;2.83;;;;;;;;;;1047917;27;100446;-58
2021/10/19 14:55:06;;;;;;;5.72;3.28;;;;;;;;;;1040526;28;99949;-57
2021/10/19 14:55:37;;;;;;;10.77;3.00;;;;;;;;;;1039014;28;101656;-58
2021/10/19 14:56:08;;;;;;;7.22;2.90;;;;;;;;;;1036434;28;100018;-57
2021/10/19 14:56:39;;;;;;;3.30;2.55;;;;;;;;;;1031914;28;100449;-58
2021/10/19 14:57:10;;;;;;;6.53;3.10;;;;;;;;;;1040545;28;100098;-57
2021/10/19 14:57:43;;;;;;;7.47;2.63;;;;;;;;;;1039926;27;100448;-57
2021/10/19 14:58:14;;;;;;;3.70;3.00;;;;;;;;;;1044707;27;99925;-58
2021/10/19 14:58:45;;;;;;;10.98;2.92;;;;;;;;;;1043941;27;100393;-58
2021/10/19 14:59:16;;;;;;;5.55;3.13;;;;;;;;;;1045317;27;99814;-58
2021/10/19 14:59:46;;;;;;;8.50;3.38;;;;;;;;;;1043834;27;100383;-59
2021/10/19 15:00:17;;;;;;;4.55;2.95;;;;;;;;;;1045171;27;99943;-59
2021/10/19 15:00:48;;;;;;;2.90;2.60;;;;;;;;;;1043325;27;100435;-57
2021/10/19 15:01:19;;;;;;;7.75;3.17;;;;;;;;;;1044933;27;100735;-59
2021/10/19 15:01:50;;;;;;;3.70;2.60;;;;;;;;;;1043598;27;100795;-57
2021/10/19 15:02:20;;;;;;;4.35;3.05;;;;;;;;;;1045023;27;99970;-57
2021/10/19 15:02:52;;;;;;;3.45;2.63;;;;;;;;;;1043830;27;100442;-58
2021/10/19 15:03:23;;;;;;;4.15;2.95;;;;;;;;;;1045270;27;99852;-58
2021/10/19 15:03:53;;;;;;;4.05;2.70;;;;;;;;;;1043819;27;100460;-58
2021/10/19 15:04:24;;;;;;;4.13;2.47;;;;;;;;;;1045166;27;100146;-58
2021/10/19 15:04:55;;;;;;;3.88;2.42;;;;;;;;;;1043565;27;101626;-58
2021/10/19 15:05:32;;;;;;;4.57;2.72;;;;;;;;;;1045301;27;99857;-58
2021/10/19 15:06:03;;;;;;;5.25;2.75;;;;;;;;;;1043805;27;100412;-58
2021/10/19 15:06:35;;;;;;;4.00;2.72;;;;;;;;;;1044222;27;99909;-58
2021/10/19 15:07:06;;;;;;;4.85;2.95;;;;;;;;;;1043214;27;100634;-51
2021/10/19 15:07:37;;;;;;;5.93;2.80;;;;;;;;;;1044693;27;100179;-58
2021/10/19 15:08:08;;;;;;;9.75;2.92;;;;;;;;;;1043515;27;100596;-58
2021/10/19 15:08:39;;;;;;;3.90;2.33;;;;;;;;;;1044806;27;99900;-58
2021/10/19 15:09:12;;;;;;;3.78;2.55;;;;;;;;;;1043651;27;100621;-57
2021/10/19 15:09:43;;;;;;;5.55;2.72;;;;;;;;;;1045122;27;99800;-58
2021/10/19 15:10:15;;;;;;;5.00;2.78;;;;;;;;;;1043639;27;101443;-53
2021/10/19 15:10:45;;;;;;;6.32;2.72;;;;;;;;;;1044654;27;99880;-57
2021/10/19 15:11:16;;;;;;;11.15;2.80;;;;;;;;;;1043826;27;100429;-57
2021/10/19 15:11:47;;;;;;;5.10;2.70;;;;;;;;;;1044933;27;99825;-56
2021/10/19 15:12:19;;;;;;;4.40;2.67;;;;;;;;;;1043958;27;100520;-57
2021/10/19 15:12:50;;;;;;;6.18;2.90;;;;;;;;;;1044892;27;99965;-56
2021/10/19 15:13:21;;;;;;;4.35;2.83;;;;;;;;;;1038803;28;100819;-57
2021/10/19 15:13:51;;;;;;;4.60;2.70;;;;;;;;;;1035793;28;99970;-56
2021/10/19 15:14:22;;;;;;;7.07;2.58;;;;;;;;;;1034434;28;101803;-57
2021/10/19 15:14:53;;;;;;;5.63;2.85;;;;;;;;;;1036213;27;99880;-56
2021/10/19 15:15:24;;;;;;;5.63;2.78;;;;;;;;;;1038558;28;102616;-55
2021/10/19 15:15:55;;;;;;;6.82;2.75;;;;;;;;;;1039862;28;100233;-55
2021/10/19 15:16:27;;;;;;;4.68;2.65;;;;;;;;;;1039133;28;100395;-56
2021/10/19 15:16:58;;;;;;;6.75;2.97;;;;;;;;;;1040201;28;100142;-56
2021/10/19 15:17:29;;;;;;;5.47;2.75;;;;;;;;;;1038992;28;101472;-54
2021/10/19 15:17:59;;;;;;;2.88;2.67;;;;;;;;;;1040417;28;100117;-55
2021/10/19 15:18:31;;;;;;;6.25;2.85;;;;;;;;;;1039174;28;100639;-56
2021/10/19 15:19:02;;;;;;;4.05;2.70;;;;;;;;;;1040356;28;100190;-55
2021/10/19 15:19:33;;;;;;;3.95;2.65;;;;;;;;;;1039255;28;100495;-58
2021/10/19 15:20:05;;;;;;;8.38;2.65;;;;;;;;;;1040513;28;100179;-56
2021/10/19 15:20:36;;;;;;;8.30;2.85;;;;;;;;;;1038881;28;100549;-56
2021/10/19 15:21:07;;;;;;;3.63;2.65;;;;;;;;;;1040079;28;100094;-56
2021/10/19 15:21:38;;;;;;;5.15;2.67;;;;;;;;;;1038995;28;101331;-58
2021/10/19 15:22:09;;;;;;;4.70;2.55;;;;;;;;;;1040299;28;99586;-57
2021/10/19 15:22:40;;;;;;;8.43;2.40;;;;;;;;;;1039253;28;100724;-57
2021/10/19 15:23:11;;;;;;;4.28;2.65;;;;;;;;;;1040125;28;99998;-57
2021/10/19 15:23:42;;;;;;;5.70;2.70;;;;;;;;;;1038915;28;101916;-57
2021/10/19 15:24:13;;;;;;;3.20;2.42;;;;;;;;;;1040455;28;100048;-56
2021/10/19 15:24:44;;;;;;;5.47;2.35;;;;;;;;;;1039176;28;100418;-59
2021/10/19 15:25:15;;;;;;;4.35;2.85;;;;;;;;;;1040171;28;100163;-55
2021/10/19 15:25:45;;;;;;;3.75;2.40;;;;;;;;;;1038958;28;101090;-56
2021/10/19 15:26:16;;;;;;;9.70;3.10;;;;;;;;;;1040097;28;100068;-57
2021/10/19 15:26:47;;;;;;;3.17;2.45;;;;;;;;;;1039139;28;100602;-58
2021/10/19 15:27:18;;;;;;;3.53;2.63;;;;;;;;;;1035882;28;100234;-56
2021/10/19 15:27:49;;;;;;;4.03;2.63;;;;;;;;;;1034789;28;101559;-58
2021/10/19 15:28:20;;;;;;;4.72;2.47;;;;;;;;;;1036106;28;100109;-57
2021/10/19 15:28:51;;;;;;;3.88;2.78;;;;;;;;;;1034929;28;101397;-58
2021/10/19 15:29:23;;;;;;;4.15;2.80;;;;;;;;;;1040222;28;100205;-57
2021/10/19 15:29:54;;;;;;;4.07;2.63;;;;;;;;;;1039118;28;100538;-57
2021/10/19 15:30:25;;;;;;;3.55;2.70;;;;;;;;;;1040481;28;99883;-57
2021/10/19 15:30:56;;;;;;;6.07;2.85;;;;;;;;;;1034701;28;100397;-58
2021/10/19 15:31:28;;;;;;;6.78;2.80;;;;;;;;;;1035745;28;100245;-56
2021/10/19 15:32:00;;;;;;;6.55;2.83;;;;;;;;;;1034958;28;100887;-58
2021/10/19 15:32:31;;;;;;;3.33;2.70;;;;;;;;;;1036845;28;99249;-57
2021/10/19 15:33:02;;;;;;;6.57;2.78;;;;;;;;;;1034720;28;101593;-58
2021/10/19 15:33:34;;;;;;;4.47;2.53;;;;;;;;;;1035974;28;100127;-58
2021/10/19 15:34:05;;;;;;;5.57;2.50;;;;;;;;;;1035005;28;100527;-58
2021/10/19 15:34:36;;;;;;;4.63;2.60;;;;;;;;;;1036819;28;99431;-56
2021/10/19 15:35:08;;;;;;;4.13;2.75;;;;;;;;;;1038771;28;100776;-58
2021/10/19 15:35:39;;;;;;;3.72;2.35;;;;;;;;;;1040203;28;100102;-57
2021/10/19 15:36:10;;;;;;;4.00;2.30;;;;;;;;;;1038923;28;100373;-58
2021/10/19 15:36:41;;;;;;;4.47;2.55;;;;;;;;;;1040222;28;100077;-57
2021/10/19 15:37:11;;;;;;;4.63;2.55;;;;;;;;;;1034855;28;100449;-56
2021/10/19 15:37:42;;;;;;;3.13;2.63;;;;;;;;;;1039596;28;100132;-56
2021/10/19 15:38:13;;;;;;;3.63;2.50;;;;;;;;;;1038482;28;102000;-58
2021/10/19 15:38:44;;;;;;;3.03;2.38;;;;;;;;;;1039812;28;99894;-58
2021/10/19 15:39:15;;;;;;;4.40;2.55;;;;;;;;;;1038718;28;101741;-57
2021/10/19 15:39:46;;;;;;;3.03;2.58;;;;;;;;;;1039719;28;100184;-57
2021/10/19 15:40:17;;;;;;;3.78;2.35;;;;;;;;;;1038710;28;100653;-57
2021/10/19 15:40:48;;;;;;;3.70;2.50;;;;;;;;;;1040133;28;100062;-58
2021/10/19 15:41:20;;;;;;;4.35;2.75;;;;;;;;;;1038759;28;100184;-59
2021/10/19 15:41:51;;;;;;;4.63;2.72;;;;;;;;;;1039601;28;100437;-57
2021/10/19 15:42:22;;;;;;;6.00;2.75;;;;;;;;;;1039020;28;100692;-57
2021/10/19 15:42:54;;;;;;;3.85;2.50;;;;;;;;;;1040232;28;99874;-57
2021/10/19 15:43:24;;;;;;;3.92;2.67;;;;;;;;;;1034337;28;100651;-57
2021/10/19 15:43:57;;;;;;;5.00;2.80;;;;;;;;;;1035603;28;100527;-58
2021/10/19 15:44:28;;;;;;;3.40;2.50;;;;;;;;;;1034588;28;100500;-58
2021/10/19 15:45:00;;;;;;;5.05;2.70;;;;;;;;;;1036089;28;99960;-58
2021/10/19 15:45:31;;;;;;;4.65;2.50;;;;;;;;;;1038519;28;100469;-58
2021/10/19 15:46:04;;;;;;;5.22;2.35;;;;;;;;;;1035697;28;100268;-58
2021/10/19 15:46:36;;;;;;;9.43;2.67;;;;;;;;;;1034342;28;100407;-58
2021/10/19 15:47:09;;;;;;;3.97;2.40;;;;;;;;;;1036006;28;99994;-58
2021/10/19 15:47:40;;;;;;;2.97;2.10;;;;;;;;;;1043157;27;100566;-57
2021/10/19 15:48:11;;;;;;;3.53;2.70;;;;;;;;;;1044669;27;99892;-58
2021/10/19 15:48:42;;;;;;;4.88;2.58;;;;;;;;;;1043362;27;101778;-58
2021/10/19 15:49:13;;;;;;;4.03;2.47;;;;;;;;;;1044823;27;99207;-57
2021/10/19 15:49:44;;;;;;;4.13;2.45;;;;;;;;;;1043334;27;100343;-58
2021/10/19 15:50:19;;;;;;;2.92;2.25;;;;;;;;;;1044546;27;100131;-57
2021/10/19 15:50:53;;;;;;;3.47;2.35;;;;;;;;;;1043370;27;100379;-58
2021/10/19 15:51:24;;;;;;;3.65;2.30;;;;;;;;;;1044494;27;99868;-58
2021/10/19 15:51:55;;;;;;;3.22;2.60;;;;;;;;;;1043466;27;101017;-57
2021/10/19 15:52:26;;;;;;;2.33;2.13;;;;;;;;;;1044461;27;99868;-58
2021/10/19 15:52:57;;;;;;;3.38;2.50;;;;;;;;;;1043164;27;100799;-56
2021/10/19 15:53:27;;;;;;;3.40;2.30;;;;;;;;;;1044669;27;99861;-57
2021/10/19 15:53:59;;;;;;;5.95;2.17;;;;;;;;;;1043330;27;100357;-57
2021/10/19 15:54:30;;;;;;;2.83;2.50;;;;;;;;;;1044670;27;100044;-58
2021/10/19 15:55:00;;;;;;;2.42;2.22;;;;;;;;;;1043583;27;100416;-57
2021/10/19 15:55:31;;;;;;;5.55;2.70;;;;;;;;;;1044799;27;100047;-58
2021/10/19 15:56:03;;;;;;;3.53;2.25;;;;;;;;;;1043637;27;100423;-57
2021/10/19 15:56:33;;;;;;;2.58;2.38;;;;;;;;;;1044264;27;100066;-58
2021/10/19 15:57:05;;;;;;;3.88;2.55;;;;;;;;;;1041099;27;100777;-58
2021/10/19 15:57:36;;;;;;;4.32;2.50;;;;;;;;;;1042067;27;99970;-57
2021/10/19 15:58:09;;;;;;;5.45;2.33;;;;;;;;;;1044427;27;101372;-58
2021/10/19 15:58:40;;;;;;;4.13;2.45;;;;;;;;;;1045815;27;99980;-58
2021/10/19 15:59:12;;;;;;;3.53;2.42;;;;;;;;;;1044723;27;100485;-58
2021/10/19 15:59:43;;;;;;;2.83;2.30;;;;;;;;;;1045315;27;99967;-58
2021/10/19 16:00:14;;;;;;;3.38;2.60;;;;;;;;;;1040578;27;101328;-57
2021/10/19 16:00:44;;;;;;;4.75;2.50;;;;;;;;;;1041746;27;99861;-58
2021/10/19 16:01:15;;;;;;;3.78;2.38;;;;;;;;;;1040668;27;100387;-58
2021/10/19 16:01:46;;;;;;;2.60;2.40;;;;;;;;;;1041944;28;99817;-56
2021/10/19 16:02:17;;;;;;;6.90;2.40;;;;;;;;;;1040563;27;101509;-57
2021/10/19 16:02:48;;;;;;;3.30;2.05;;;;;;;;;;1041928;27;99901;-57
2021/10/19 16:03:19;;;;;;;3.55;2.42;;;;;;;;;;1040575;27;101357;-58
2021/10/19 16:03:50;;;;;;;2.92;2.35;;;;;;;;;;1041859;27;100033;-57
2021/10/19 16:04:21;;;;;;;3.17;2.35;;;;;;;;;;1040647;27;100421;-57
2021/10/19 16:04:51;;;;;;;3.03;2.20;;;;;;;;;;1041629;28;100015;-57
2021/10/19 16:05:22;;;;;;;4.25;2.35;;;;;;;;;;1040395;28;100231;-57
2021/10/19 16:05:53;;;;;;;3.67;2.20;;;;;;;;;;1041601;28;100080;-57
2021/10/19 16:06:24;;;;;;;3.67;2.33;;;;;;;;;;1040189;28;101617;-57
2021/10/19 16:06:55;;;;;;;3.03;2.40;;;;;;;;;;1041713;27;100271;-57
2021/10/19 16:07:27;;;;;;;2.67;2.45;;;;;;;;;;1040481;27;101374;-57
2021/10/19 16:08:00;;;;;;;2.50;2.30;;;;;;;;;;1042128;28;99889;-57
2021/10/19 16:08:31;;;;;;;3.58;2.20;;;;;;;;;;1040589;28;100690;-57
2021/10/19 16:09:03;;;;;;;3.75;2.60;;;;;;;;;;1041931;28;99895;-57
2021/10/19 16:09:33;;;;;;;4.45;2.22;;;;;;;;;;1040357;28;100540;-57
2021/10/19 16:10:05;;;;;;;2.55;2.35;;;;;;;;;;1041686;28;99941;-57
2021/10/19 16:10:36;;;;;;;3.33;2.28;;;;;;;;;;1040126;28;101566;-57
2021/10/19 16:11:07;;;;;;;4.35;2.30;;;;;;;;;;1041387;28;99835;-57
2021/10/19 16:11:37;;;;;;;2.78;2.38;;;;;;;;;;1040450;28;101475;-57
2021/10/19 16:12:08;;;;;;;4.53;2.05;;;;;;;;;;1041829;28;100098;-57
2021/10/19 16:12:39;;;;;;;5.43;2.83;;;;;;;;;;1040616;27;100475;-57
2021/10/19 16:13:10;;;;;;;4.57;2.55;;;;;;;;;;1041702;27;100168;-57
2021/10/19 16:13:41;;;;;;;4.43;2.50;;;;;;;;;;1040518;27;101543;-57
2021/10/19 16:14:12;;;;;;;5.50;2.47;;;;;;;;;;1041839;27;100091;-57
2021/10/19 16:14:43;;;;;;;2.97;2.63;;;;;;;;;;1039790;28;100562;-57
2021/10/19 16:15:14;;;;;;;2.45;2.08;;;;;;;;;;1041219;28;100215;-57
2021/10/19 16:15:45;;;;;;;3.72;2.53;;;;;;;;;;1039978;28;100425;-57
2021/10/19 16:16:16;;;;;;;2.75;2.22;;;;;;;;;;1041241;28;99934;-57
2021/10/19 16:16:48;;;;;;;3.42;2.10;;;;;;;;;;1040555;28;101002;-57
2021/10/19 16:17:19;;;;;;;2.97;2.15;;;;;;;;;;1041653;27;100126;-56
2021/10/19 16:17:50;;;;;;;2.60;2.40;;;;;;;;;;1040770;27;100723;-57
2021/10/19 16:18:21;;;;;;;3.75;2.55;;;;;;;;;;1041987;28;99907;-57
2021/10/19 16:18:52;;;;;;;4.90;2.83;;;;;;;;;;1040531;27;100344;-57
2021/10/19 16:19:23;;;;;;;3.90;2.28;;;;;;;;;;1041868;27;100221;-57
2021/10/19 16:19:54;;;;;;;6.70;2.42;;;;;;;;;;1040754;28;100437;-56
2021/10/19 16:20:25;;;;;;;3.88;2.35;;;;;;;;;;1042009;27;99829;-56
2021/10/19 16:20:56;;;;;;;3.85;2.60;;;;;;;;;;1040579;28;100879;-56
2021/10/19 16:21:29;;;;;;;3.60;2.28;;;;;;;;;;1041735;27;99260;-57
2021/10/19 16:22:00;;;;;;;3.65;2.45;;;;;;;;;;1040445;28;100458;-56
2021/10/19 16:22:31;;;;;;;3.10;2.45;;;;;;;;;;1042044;27;99842;-56
2021/10/19 16:23:03;;;;;;;2.78;2.20;;;;;;;;;;1040648;27;100685;-58
2021/10/19 16:23:34;;;;;;;3.38;2.25;;;;;;;;;;1041691;28;100136;-57
2021/10/19 16:24:05;;;;;;;3.28;2.40;;;;;;;;;;1040639;27;100541;-56
2021/10/19 16:24:36;;;;;;;4.60;2.30;;;;;;;;;;1042029;28;99854;-56
2021/10/19 16:25:09;;;;;;;3.03;2.50;;;;;;;;;;1043862;27;100594;-57
2021/10/19 16:25:40;;;;;;;3.58;2.47;;;;;;;;;;1045401;27;100341;-57
2021/10/19 16:26:12;;;;;;;3.42;2.60;;;;;;;;;;1039831;28;101474;-58
2021/10/19 16:26:44;;;;;;;5.63;2.40;;;;;;;;;;1041415;28;100146;-57
2021/10/19 16:27:15;;;;;;;7.25;2.30;;;;;;;;;;1039611;28;100689;-58
2021/10/19 16:27:46;;;;;;;3.47;2.08;;;;;;;;;;1040924;27;100177;-58
2021/10/19 16:28:17;;;;;;;2.58;2.22;;;;;;;;;;1040224;28;100705;-57
2021/10/19 16:28:48;;;;;;;5.05;2.30;;;;;;;;;;1041369;27;100060;-58
2021/10/19 16:29:19;;;;;;;4.70;2.20;;;;;;;;;;1040313;28;100542;-58
2021/10/19 16:29:50;;;;;;;3.38;2.35;;;;;;;;;;1041350;28;100271;-58
2021/10/19 16:30:21;;;;;;;3.90;2.42;;;;;;;;;;1040203;28;101402;-58
2021/10/19 16:30:52;;;;;;;2.40;2.20;;;;;;;;;;1041629;28;100026;-57
2021/10/19 16:31:22;;;;;;;5.15;2.35;;;;;;;;;;1040687;28;100458;-57
2021/10/19 16:31:53;;;;;;;4.55;2.22;;;;;;;;;;1041615;28;100171;-57
2021/10/19 16:32:24;;;;;;;4.63;2.15;;;;;;;;;;1040521;28;100448;-57
2021/10/19 16:32:55;;;;;;;2.63;2.40;;;;;;;;;;1042002;28;99910;-56
2021/10/19 16:33:26;;;;;;;3.55;2.05;;;;;;;;;;1040429;27;100430;-58
2021/10/19 16:33:57;;;;;;;2.88;2.33;;;;;;;;;;1041679;27;100148;-57
2021/10/19 16:34:28;;;;;;;3.67;2.85;;;;;;;;;;1040627;28;100491;-57
2021/10/19 16:34:59;;;;;;;2.97;2.35;;;;;;;;;;1041911;28;99835;-57
2021/10/19 16:35:31;;;;;;;3.08;2.40;;;;;;;;;;1040492;27;100849;-57
2021/10/19 16:36:03;;;;;;;3.65;2.00;;;;;;;;;;1041131;28;100230;-58
2021/10/19 16:36:35;;;;;;;4.70;2.35;;;;;;;;;;1036158;28;100473;-58
2021/10/19 16:37:06;;;;;;;3.85;2.50;;;;;;;;;;1037211;28;100012;-59
2021/10/19 16:37:37;;;;;;;3.45;2.17;;;;;;;;;;1036613;28;100472;-58
2021/10/19 16:38:08;;;;;;;4.53;2.45;;;;;;;;;;1041423;28;100258;-56
2021/10/19 16:38:39;;;;;;;5.57;2.00;;;;;;;;;;1040362;28;100136;-58
2021/10/19 16:39:12;;;;;;;3.08;2.55;;;;;;;;;;1037421;28;100141;-59
2021/10/19 16:39:43;;;;;;;2.50;2.15;;;;;;;;;;1035983;28;100259;-58
2021/10/19 16:40:14;;;;;;;4.20;2.10;;;;;;;;;;1037801;28;99592;-58
2021/10/19 16:40:45;;;;;;;2.70;2.05;;;;;;;;;;1040351;28;100417;-58
2021/10/19 16:41:16;;;;;;;2.70;2.20;;;;;;;;;;1041535;27;99926;-58
2021/10/19 16:41:46;;;;;;;2.63;2.28;;;;;;;;;;1044476;27;100770;-58
2021/10/19 16:42:17;;;;;;;4.72;2.20;;;;;;;;;;1045358;27;100137;-58
2021/10/19 16:42:48;;;;;;;3.05;2.30;;;;;;;;;;1044094;27;101459;-58
2021/10/19 16:43:19;;;;;;;3.33;2.30;;;;;;;;;;1045514;27;99893;-58
2021/10/19 16:43:50;;;;;;;3.17;2.40;;;;;;;;;;1044481;27;100546;-58
2021/10/19 16:44:21;;;;;;;7.05;2.28;;;;;;;;;;1045561;27;100158;-58
2021/10/19 16:44:51;;;;;;;3.33;2.30;;;;;;;;;;1044554;27;100668;-58
2021/10/19 16:45:22;;;;;;;2.38;2.10;;;;;;;;;;1045107;27;100059;-58
2021/10/19 16:45:53;;;;;;;3.00;2.10;;;;;;;;;;1040718;27;100379;-58
2021/10/19 16:46:25;;;;;;;4.15;2.60;;;;;;;;;;1041681;28;99967;-58
2021/10/19 16:46:57;;;;;;;2.75;1.98;;;;;;;;;;1040680;27;100724;-58
2021/10/19 16:47:28;;;;;;;2.83;2.08;;;;;;;;;;1041512;27;99833;-58
2021/10/19 16:47:59;;;;;;;4.95;2.20;;;;;;;;;;1040242;27;101333;-58
2021/10/19 16:48:30;;;;;;;2.63;2.17;;;;;;;;;;1041295;28;99949;-58
2021/10/19 16:49:01;;;;;;;2.30;2.10;;;;;;;;;;1040283;28;100830;-58
2021/10/19 16:49:32;;;;;;;3.03;2.28;;;;;;;;;;1041394;28;99922;-57
2021/10/19 16:50:04;;;;;;;4.25;2.47;;;;;;;;;;1040020;28;101907;-57
2021/10/19 16:50:34;;;;;;;2.47;2.10;;;;;;;;;;1041590;27;99325;-58
2021/10/19 16:51:05;;;;;;;3.58;2.00;;;;;;;;;;1040495;28;100432;-58
2021/10/19 16:51:36;;;;;;;4.28;2.38;;;;;;;;;;1041885;28;99245;-58
2021/10/19 16:52:07;;;;;;;2.40;2.20;;;;;;;;;;1040589;28;100087;-58
2021/10/19 16:52:38;;;;;;;2.75;2.05;;;;;;;;;;1041434;28;99865;-58
2021/10/19 16:53:09;;;;;;;3.95;2.10;;;;;;;;;;1040423;28;100467;-58
2021/10/19 16:53:40;;;;;;;5.13;2.35;;;;;;;;;;1041644;27;100048;-58
2021/10/19 16:54:10;;;;;;;2.13;1.92;;;;;;;;;;1040547;27;100470;-58
2021/10/19 16:54:41;;;;;;;4.75;2.33;;;;;;;;;;1041791;28;99842;-57
2021/10/19 16:55:13;;;;;;;4.28;2.35;;;;;;;;;;1040539;27;100719;-59
2021/10/19 16:55:44;;;;;;;2.58;2.28;;;;;;;;;;1041649;27;99921;-58
2021/10/19 16:56:15;;;;;;;3.33;1.90;;;;;;;;;;1040284;28;100787;-58
2021/10/19 16:56:46;;;;;;;3.35;2.20;;;;;;;;;;1041243;28;99875;-58
2021/10/19 16:57:16;;;;;;;6.18;2.00;;;;;;;;;;1040225;28;100417;-57
2021/10/19 16:57:47;;;;;;;4.53;2.00;;;;;;;;;;1041226;28;99942;-57
2021/10/19 16:58:18;;;;;;;4.65;2.53;;;;;;;;;;1040532;27;100432;-58
2021/10/19 16:58:50;;;;;;;2.70;1.92;;;;;;;;;;1041299;28;99906;-58
2021/10/19 16:59:20;;;;;;;2.83;2.10;;;;;;;;;;1040270;28;100459;-58
2021/10/19 16:59:51;;;;;;;2.97;1.88;;;;;;;;;;1041510;28;99873;-58
2021/10/19 17:00:22;;;;;;;3.30;2.20;;;;;;;;;;1040332;28;100163;-58
2021/10/19 17:00:53;;;;;;;4.10;2.15;;;;;;;;;;1041585;28;99829;-57
2021/10/19 17:01:24;;;;;;;3.72;2.20;;;;;;;;;;1040412;27;101586;-57
2021/10/19 17:01:55;;;;;;;2.42;2.22;;;;;;;;;;1041777;27;99861;-58
2021/10/19 17:02:26;;;;;;;2.78;2.17;;;;;;;;;;1040416;28;100231;-56
2021/10/19 17:02:57;;;;;;;3.30;2.30;;;;;;;;;;1041067;28;100059;-57
2021/10/19 17:03:28;;;;;;;3.38;2.58;;;;;;;;;;1040026;28;101446;-57
2021/10/19 17:03:58;;;;;;;3.60;2.00;;;;;;;;;;1041485;28;99820;-57
2021/10/19 17:04:30;;;;;;;2.30;2.10;;;;;;;;;;1040498;27;100430;-56
2021/10/19 17:05:02;;;;;;;3.67;2.22;;;;;;;;;;1045201;27;99952;-58
2021/10/19 17:05:32;;;;;;;4.35;1.90;;;;;;;;;;1040518;27;100541;-57
2021/10/19 17:06:04;;;;;;;2.40;2.15;;;;;;;;;;1041839;28;99850;-58
2021/10/19 17:06:35;;;;;;;4.10;2.35;;;;;;;;;;1040357;27;100453;-58
2021/10/19 17:07:06;;;;;;;2.60;2.17;;;;;;;;;;1041637;28;99738;-57
2021/10/19 17:07:39;;;;;;;2.88;2.10;;;;;;;;;;1040634;27;100420;-58
2021/10/19 17:08:10;;;;;;;2.28;2.03;;;;;;;;;;1041262;27;100136;-58
2021/10/19 17:08:41;;;;;;;2.83;2.35;;;;;;;;;;1044006;27;100428;-58
2021/10/19 17:09:12;;;;;;;4.25;2.20;;;;;;;;;;1044924;27;99861;-58
2021/10/19 17:09:46;;;;;;;4.65;2.28;;;;;;;;;;1044425;27;100508;-57
2021/10/19 17:10:16;;;;;;;4.53;2.10;;;;;;;;;;1041435;28;99843;-58
2021/10/19 17:10:47;;;;;;;2.33;2.10;;;;;;;;;;1039473;28;100813;-58
2021/10/19 17:11:18;;;;;;;4.13;2.10;;;;;;;;;;1041047;28;100349;-58
2021/10/19 17:11:49;;;;;;;2.28;2.00;;;;;;;;;;1040152;28;100199;-58
2021/10/19 17:12:20;;;;;;;2.60;2.15;;;;;;;;;;1041122;28;100115;-56
2021/10/19 17:12:51;;;;;;;5.93;2.13;;;;;;;;;;1040495;27;100719;-56
2021/10/19 17:13:22;;;;;;;3.15;2.08;;;;;;;;;;1041441;28;99912;-57
2021/10/19 17:13:55;;;;;;;2.88;2.08;;;;;;;;;;1040593;27;100236;-57
2021/10/19 17:14:26;;;;;;;3.58;2.22;;;;;;;;;;1041660;28;99880;-57
2021/10/19 17:14:56;;;;;;;3.88;2.20;;;;;;;;;;1040476;28;100750;-56
2021/10/19 17:15:31;;;;;;;2.50;2.15;;;;;;;;;;1041410;27;99248;-57
2021/10/19 17:16:01;;;;;;;2.60;2.00;;;;;;;;;;1040521;28;100376;-57
2021/10/19 17:16:33;;;;;;;2.08;1.90;;;;;;;;;;1041418;28;100035;-54
2021/10/19 17:17:04;;;;;;;3.90;2.22;;;;;;;;;;1039794;28;101388;-53
2021/10/19 17:17:35;;;;;;;5.45;2.10;;;;;;;;;;1040991;28;99894;-55
2021/10/19 17:18:05;;;;;;;5.22;2.13;;;;;;;;;;1040124;28;100188;-57
2021/10/19 17:18:36;;;;;;;2.00;1.90;;;;;;;;;;1041572;28;99842;-57
2021/10/19 17:19:07;;;;;;;2.88;2.03;;;;;;;;;;1040561;27;100747;-57
2021/10/19 17:19:38;;;;;;;3.50;2.30;;;;;;;;;;1041558;28;99739;-58
2021/10/19 17:20:10;;;;;;;4.82;2.45;;;;;;;;;;1040322;27;100427;-57
2021/10/19 17:20:42;;;;;;;3.33;2.17;;;;;;;;;;1041730;28;99923;-57
2021/10/19 17:21:13;;;;;;;3.70;1.92;;;;;;;;;;1044117;27;101622;-57
2021/10/19 17:21:44;;;;;;;3.67;2.30;;;;;;;;;;1045405;27;99998;-58
2021/10/19 17:22:16;;;;;;;4.18;2.03;;;;;;;;;;1044196;27;101525;-58
2021/10/19 17:22:46;;;;;;;3.33;1.90;;;;;;;;;;1041144;28;99979;-58
2021/10/19 17:23:17;;;;;;;5.05;1.90;;;;;;;;;;1040062;28;100510;-58
2021/10/19 17:23:48;;;;;;;6.55;2.03;;;;;;;;;;1041061;28;100058;-58
2021/10/19 17:24:19;;;;;;;3.42;2.00;;;;;;;;;;1040331;28;100500;-58
2021/10/19 17:24:50;;;;;;;2.50;2.17;;;;;;;;;;1041711;27;100081;-59
2021/10/19 17:25:21;;;;;;;2.80;1.80;;;;;;;;;;1040612;27;100405;-59
